createdAt,value
2022-08-03T00:02:16.769Z,11.73
2022-08-03T00:04:43.971Z,10.88
2022-08-03T00:07:10.790Z,11.40
2022-08-03T00:09:37.640Z,10.23
2022-08-03T00:12:04.711Z,10.65
2022-08-03T00:14:31.493Z,10.75
2022-08-03T00:16:58.388Z,10.75
2022-08-03T00:19:27.540Z,10.52
2022-08-03T00:21:54.595Z,11.00
2022-08-03T00:24:21.544Z,10.50
2022-08-03T00:26:48.352Z,10.98
2022-08-03T00:29:15.161Z,11.68
2022-08-03T00:31:52.619Z,10.85
2022-08-03T00:34:19.999Z,11.15
2022-08-03T00:37:02.147Z,10.10
2022-08-03T00:39:28.950Z,10.75
2022-08-03T00:41:55.750Z,11.00
2022-08-03T00:44:22.535Z,10.07
2022-08-03T00:46:49.325Z,10.43
2022-08-03T00:49:16.252Z,10.98
2022-08-03T00:51:43.543Z,10.80
2022-08-03T00:54:10.647Z,10.90
2022-08-03T00:56:37.974Z,10.80
2022-08-03T00:59:04.865Z,11.77
2022-08-03T01:01:32.528Z,11.40
2022-08-03T01:03:59.889Z,11.23
2022-08-03T01:06:36.822Z,11.25
2022-08-03T01:09:16.660Z,10.85
2022-08-03T01:12:31.238Z,10.80
2022-08-03T01:15:10.954Z,11.07
2022-08-03T01:18:14.742Z,11.27
2022-08-03T01:20:45.515Z,11.55
2022-08-03T01:23:49.799Z,11.55
2022-08-03T01:26:51.098Z,11.65
2022-08-03T01:29:43.761Z,12.07
2022-08-03T01:32:58.898Z,11.48
2022-08-03T01:35:38.873Z,11.20
2022-08-03T01:38:15.622Z,11.43
2022-08-03T01:40:44.871Z,11.52
2022-08-03T01:43:55.117Z,11.75
2022-08-03T01:46:06.849Z,11.90
2022-08-03T01:48:36.248Z,12.60
2022-08-03T01:51:04.741Z,11.95
2022-08-03T01:53:34.678Z,11.93
2022-08-03T01:56:03.670Z,12.10
2022-08-03T01:58:32.179Z,11.32
2022-08-03T02:01:04.006Z,11.60
2022-08-03T02:03:34.111Z,11.65
2022-08-03T02:07:01.572Z,12.13
2022-08-03T02:08:52.766Z,11.68
2022-08-03T02:11:20.114Z,12.35
2022-08-03T02:13:48.182Z,13.48
2022-08-03T02:16:15.064Z,13.43
2022-08-03T02:18:42.922Z,12.90
2022-08-03T02:21:11.900Z,13.75
2022-08-03T02:23:58.729Z,12.77
2022-08-03T02:26:29.885Z,12.05
2022-08-03T02:29:06.096Z,13.05
2022-08-03T02:31:37.033Z,13.05
2022-08-03T02:34:09.834Z,13.35
2022-08-03T02:36:40.110Z,13.93
2022-08-03T02:39:10.211Z,13.23
2022-08-03T02:41:49.496Z,13.07
2022-08-03T02:44:21.583Z,13.00
2022-08-03T02:46:53.191Z,13.00
2022-08-03T02:49:41.062Z,12.70
2022-08-03T02:52:16.014Z,13.27
2022-08-03T02:54:46.470Z,13.60
2022-08-03T02:57:15.097Z,14.27
2022-08-03T02:59:46.116Z,13.13
2022-08-03T03:02:15.302Z,13.38
2022-08-03T03:05:50.792Z,12.60
2022-08-03T03:07:35.350Z,12.88
2022-08-03T03:10:20.753Z,11.98
2022-08-03T03:12:50.182Z,12.57
2022-08-03T03:15:17.277Z,12.60
2022-08-03T03:17:44.680Z,13.18
2022-08-03T03:20:12.255Z,12.50
2022-08-03T03:22:40.942Z,12.63
2022-08-03T03:25:12.777Z,12.98
2022-08-03T03:27:40.639Z,12.88
2022-08-03T03:30:08.245Z,12.68
2022-08-03T03:32:36.920Z,12.77
2022-08-03T03:35:05.588Z,13.00
2022-08-03T03:37:32.520Z,12.68
2022-08-03T03:39:59.420Z,12.43
2022-08-03T03:42:26.962Z,12.10
2022-08-03T03:44:55.634Z,11.98
2022-08-03T03:47:32.232Z,12.80
2022-08-03T03:50:00.191Z,12.88
2022-08-03T03:52:27.096Z,12.63
2022-08-03T03:55:00.414Z,12.13
2022-08-03T03:57:28.214Z,13.07
2022-08-03T03:59:55.197Z,12.18
2022-08-03T04:02:22.044Z,12.15
2022-08-03T04:05:07.618Z,12.65
2022-08-03T04:08:02.102Z,12.13
2022-08-03T04:10:56.178Z,12.65
2022-08-03T04:13:26.710Z,13.57
2022-08-03T04:15:55.910Z,12.40
2022-08-03T04:18:24.637Z,12.65
2022-08-03T04:20:53.438Z,12.77
2022-08-03T04:23:24.557Z,13.27
2022-08-03T04:25:52.978Z,13.75
2022-08-03T04:28:31.130Z,13.60
2022-08-03T04:31:06.777Z,13.70
2022-08-03T04:33:37.415Z,13.77
2022-08-03T04:36:07.738Z,13.98
2022-08-03T04:38:40.693Z,14.43
2022-08-03T04:41:08.915Z,14.85
2022-08-03T04:43:37.221Z,15.10
2022-08-03T04:46:07.048Z,14.57
2022-08-03T04:48:34.997Z,15.02
2022-08-03T04:51:04.523Z,14.73
2022-08-03T04:53:31.452Z,15.45
2022-08-03T04:56:07.473Z,16.65
2022-08-03T04:58:34.386Z,16.13
2022-08-03T05:01:01.256Z,16.00
2022-08-03T05:03:28.075Z,16.30
2022-08-03T05:06:01.458Z,16.30
2022-08-03T05:08:29.331Z,16.80
2022-08-03T05:10:59.389Z,17.27
2022-08-03T05:13:26.548Z,16.67
2022-08-03T05:15:53.513Z,16.98
2022-08-03T05:18:20.319Z,17.88
2022-08-03T05:20:47.259Z,17.92
2022-08-03T05:23:14.525Z,18.83
2022-08-03T05:25:49.908Z,17.50
2022-08-03T05:28:17.595Z,19.58
2022-08-03T05:30:44.665Z,19.45
2022-08-03T05:33:12.744Z,19.80
2022-08-03T05:36:02.142Z,19.60
2022-08-03T05:39:02.603Z,19.50
2022-08-03T05:41:37.181Z,20.20
2022-08-03T05:44:04.994Z,20.27
2022-08-03T05:46:32.294Z,20.52
2022-08-03T05:48:59.211Z,18.98
2022-08-03T05:51:28.921Z,19.90
2022-08-03T05:53:56.273Z,19.98
2022-08-03T05:56:45.201Z,18.60
2022-08-03T05:59:36.899Z,20.67
2022-08-03T06:02:03.206Z,19.73
2022-08-03T06:04:33.150Z,19.27
2022-08-03T06:07:02.380Z,20.90
2022-08-03T06:09:56.553Z,19.60
2022-08-03T06:12:32.014Z,19.52
2022-08-03T06:15:02.798Z,20.38
2022-08-03T06:17:37.681Z,19.88
2022-08-03T06:20:09.415Z,20.50
2022-08-03T06:22:36.853Z,20.92
2022-08-03T06:25:21.155Z,20.50
2022-08-03T06:28:14.990Z,21.55
2022-08-03T06:31:12.688Z,22.65
2022-08-03T06:34:35.244Z,21.17
2022-08-03T06:36:36.531Z,22.10
2022-08-03T06:39:06.547Z,22.65
2022-08-03T06:41:38.168Z,22.38
2022-08-03T06:44:21.849Z,23.27
2022-08-03T06:46:51.210Z,22.35
2022-08-03T06:49:18.668Z,24.23
2022-08-03T06:52:03.030Z,23.95
2022-08-03T06:54:37.129Z,23.50
2022-08-03T06:57:07.283Z,21.52
2022-08-03T07:00:09.904Z,20.02
2022-08-03T07:02:28.206Z,21.52
2022-08-03T07:04:56.737Z,20.77
2022-08-03T07:07:23.976Z,19.35
2022-08-03T07:09:57.168Z,21.05
2022-08-03T07:12:30.044Z,20.80
2022-08-03T07:15:01.735Z,19.08
2022-08-03T07:17:36.927Z,18.58
2022-08-03T07:20:08.609Z,20.83
2022-08-03T07:22:36.140Z,21.50
2022-08-03T07:25:05.047Z,22.83
2022-08-03T07:27:33.758Z,22.85
2022-08-03T07:30:04.009Z,23.60
2022-08-03T07:32:31.598Z,22.88
2022-08-03T07:35:01.908Z,23.52
2022-08-03T07:37:30.543Z,23.33
2022-08-03T07:40:01.123Z,21.75
2022-08-03T07:42:29.770Z,22.83
2022-08-03T07:44:57.266Z,23.17
2022-08-03T07:47:35.116Z,20.98
2022-08-03T07:50:03.249Z,22.88
2022-08-03T07:52:59.673Z,21.48
2022-08-03T07:55:28.030Z,20.83
2022-08-03T07:58:12.287Z,21.48
2022-08-03T08:00:39.591Z,22.02
2022-08-03T08:03:06.740Z,21.52
2022-08-03T08:05:34.615Z,22.05
2022-08-03T08:08:04.902Z,23.55
2022-08-03T08:10:34.191Z,24.23
2022-08-03T08:13:01.833Z,23.80
2022-08-03T08:15:29.009Z,23.50
2022-08-03T08:17:57.891Z,22.30
2022-08-03T08:20:31.592Z,21.40
2022-08-03T08:23:09.546Z,21.90
2022-08-03T08:25:53.188Z,22.80
2022-08-03T08:28:32.353Z,20.15
2022-08-03T08:31:00.819Z,20.77
2022-08-03T08:33:37.668Z,20.77
2022-08-03T08:36:15.927Z,17.75
2022-08-03T08:38:47.297Z,14.02
2022-08-03T08:41:15.137Z,12.40
2022-08-03T08:43:42.873Z,10.68
2022-08-03T08:46:23.515Z,7.50
2022-08-03T08:48:52.098Z,6.10
2022-08-03T08:51:22.835Z,5.38
2022-08-03T08:53:53.920Z,5.63
2022-08-03T08:56:25.510Z,4.82
2022-08-03T08:58:57.351Z,5.10
2022-08-03T09:01:24.553Z,5.38
2022-08-03T09:03:53.422Z,5.10
2022-08-03T09:06:25.918Z,6.60
2022-08-03T09:08:54.260Z,6.32
2022-08-03T09:11:53.370Z,8.32
2022-08-03T09:14:39.439Z,8.40
2022-08-03T09:17:04.229Z,8.45
2022-08-03T09:19:34.364Z,8.18
2022-08-03T09:22:12.693Z,9.63
2022-08-03T09:25:23.517Z,8.40
2022-08-03T09:27:50.989Z,8.30
2022-08-03T09:30:33.837Z,8.93
2022-08-03T09:33:11.732Z,8.43
2022-08-03T09:35:57.795Z,9.50
2022-08-03T09:38:29.521Z,8.93
2022-08-03T09:41:00.847Z,8.48
2022-08-03T09:43:31.162Z,8.23
2022-08-03T09:46:07.687Z,8.55
2022-08-03T09:48:37.799Z,7.70
2022-08-03T09:51:13.086Z,8.57
2022-08-03T09:53:59.447Z,9.18
2022-08-03T09:56:47.735Z,8.20
2022-08-03T09:59:32.495Z,8.48
2022-08-03T10:02:02.422Z,8.63
2022-08-03T10:04:29.389Z,9.50
2022-08-03T10:07:08.717Z,8.20
2022-08-03T10:09:37.947Z,8.20
2022-08-03T10:12:12.970Z,7.70
2022-08-03T10:14:42.236Z,7.88
2022-08-03T10:17:10.672Z,7.05
2022-08-03T10:19:38.183Z,7.30
2022-08-03T10:22:28.243Z,7.68
2022-08-03T10:25:07.655Z,7.90
2022-08-03T10:27:42.136Z,7.78
2022-08-03T10:30:19.804Z,7.53
2022-08-03T10:33:49.192Z,7.60
2022-08-03T10:36:00.424Z,7.50
2022-08-03T10:38:53.950Z,8.10
2022-08-03T10:41:22.030Z,7.95
2022-08-03T10:44:25.516Z,8.00
2022-08-03T10:46:54.867Z,8.20
2022-08-03T10:49:33.700Z,7.88
2022-08-03T10:52:07.581Z,7.88
2022-08-03T10:55:07.853Z,7.72
2022-08-03T10:57:58.402Z,8.02
2022-08-03T11:00:30.726Z,7.63
2022-08-03T11:03:08.940Z,8.57
2022-08-03T11:05:49.068Z,8.52
2022-08-03T11:08:28.827Z,7.80
2022-08-03T11:11:01.311Z,7.90
2022-08-03T11:13:32.009Z,7.63
2022-08-03T11:16:06.056Z,8.40
2022-08-03T11:18:34.058Z,7.88
2022-08-03T11:21:04.944Z,7.40
2022-08-03T11:24:03.171Z,8.02
2022-08-03T11:26:30.966Z,8.07
2022-08-03T11:29:27.712Z,9.07
2022-08-03T11:31:58.628Z,8.43
2022-08-03T11:34:29.585Z,8.90
2022-08-03T11:37:20.556Z,8.30
2022-08-03T11:39:52.504Z,8.10
2022-08-03T11:42:25.444Z,8.15
2022-08-03T11:44:56.983Z,7.93
2022-08-03T11:47:27.407Z,7.85
2022-08-03T11:50:03.351Z,7.72
2022-08-03T11:52:38.843Z,7.88
2022-08-03T11:55:10.474Z,7.75
2022-08-03T11:59:10.748Z,7.65
2022-08-03T12:00:30.295Z,7.20
2022-08-03T12:03:08.156Z,7.75
2022-08-03T12:05:51.121Z,7.32
2022-08-03T12:08:33.831Z,7.43
2022-08-03T12:11:07.045Z,8.32
2022-08-03T12:14:27.358Z,8.50
2022-08-03T12:16:41.058Z,9.20
2022-08-03T12:19:10.307Z,8.93
2022-08-03T12:21:57.153Z,8.98
2022-08-03T12:24:28.507Z,8.65
2022-08-03T12:26:59.240Z,8.50
2022-08-03T12:29:28.458Z,7.60
2022-08-03T12:31:55.893Z,8.20
2022-08-03T12:34:23.288Z,8.40
2022-08-03T12:36:59.629Z,8.70
2022-08-03T12:39:30.825Z,8.48
2022-08-03T12:42:00.503Z,8.55
2022-08-03T12:44:35.979Z,8.70
2022-08-03T12:47:06.703Z,8.35
2022-08-03T12:49:49.779Z,8.20
2022-08-03T12:52:18.648Z,7.85
2022-08-03T12:55:08.424Z,7.25
2022-08-03T12:57:43.084Z,7.68
2022-08-03T13:00:21.525Z,7.43
2022-08-03T13:03:42.057Z,7.68
2022-08-03T13:06:03.260Z,7.43
2022-08-03T13:08:30.127Z,7.07
2022-08-03T13:10:56.958Z,7.35
2022-08-03T13:13:59.471Z,7.10
2022-08-03T13:16:47.759Z,7.10
2022-08-03T13:19:16.299Z,7.30
2022-08-03T13:22:01.889Z,7.10
2022-08-03T13:24:33.400Z,6.65
2022-08-03T13:27:22.108Z,7.10
2022-08-03T13:29:52.199Z,6.68
2022-08-03T13:32:23.094Z,7.35
2022-08-03T13:34:51.006Z,7.40
2022-08-03T13:37:19.408Z,7.00
2022-08-03T13:39:57.993Z,6.93
2022-08-03T13:42:28.327Z,7.47
2022-08-03T13:44:56.177Z,7.78
2022-08-03T13:47:23.531Z,7.55
2022-08-03T13:50:00.093Z,7.75
2022-08-03T13:52:34.141Z,7.10
2022-08-03T13:55:04.435Z,7.57
2022-08-03T13:58:19.094Z,7.47
2022-08-03T14:00:28.052Z,7.55
2022-08-03T14:03:06.564Z,7.07
2022-08-03T14:05:38.804Z,7.22
2022-08-03T14:08:10.282Z,7.60
2022-08-03T14:10:57.234Z,7.50
2022-08-03T14:13:29.927Z,7.07
2022-08-03T14:15:59.889Z,7.30
2022-08-03T14:18:29.627Z,7.25
2022-08-03T14:21:07.517Z,7.32
2022-08-03T14:23:39.984Z,7.40
2022-08-03T14:26:15.570Z,7.85
2022-08-03T14:28:44.177Z,7.80
2022-08-03T14:31:15.476Z,7.60
2022-08-03T14:33:59.785Z,7.55
2022-08-03T14:36:27.977Z,7.20
2022-08-03T14:39:01.785Z,7.25
2022-08-03T14:41:29.607Z,7.90
2022-08-03T14:44:00.549Z,7.85
2022-08-03T14:46:30.367Z,7.50
2022-08-03T14:50:36.115Z,7.43
2022-08-03T14:51:54.071Z,7.60
2022-08-03T14:54:24.192Z,7.53
2022-08-03T14:56:54.539Z,7.28
2022-08-03T14:59:21.343Z,7.15
2022-08-03T15:02:03.458Z,7.25
2022-08-03T15:04:36.063Z,9.57
2022-08-03T15:07:04.647Z,8.27
2022-08-03T15:09:31.738Z,8.70
2022-08-03T15:11:59.410Z,8.80
2022-08-03T15:14:28.456Z,7.88
2022-08-03T15:17:00.613Z,8.35
2022-08-03T15:20:04.182Z,8.20
2022-08-03T15:22:17.108Z,7.57
2022-08-03T15:24:48.213Z,8.30
2022-08-03T15:27:15.283Z,8.18
2022-08-03T15:30:04.778Z,8.32
2022-08-03T15:32:29.154Z,8.00
2022-08-03T15:34:56.275Z,7.85
2022-08-03T15:37:25.940Z,7.88
2022-08-03T15:40:02.545Z,7.68
2022-08-03T15:42:32.894Z,7.72
2022-08-03T15:45:00.182Z,8.20
2022-08-03T15:47:28.408Z,8.60
2022-08-03T15:49:58.581Z,8.00
2022-08-03T15:52:25.939Z,7.78
2022-08-03T15:54:52.914Z,8.30
2022-08-03T15:57:20.522Z,8.25
2022-08-03T15:59:47.656Z,8.50
2022-08-03T16:02:14.932Z,8.15
2022-08-03T16:04:41.775Z,7.93
2022-08-03T16:07:12.781Z,8.13
2022-08-03T16:09:52.169Z,8.18
2022-08-03T16:12:19.041Z,8.18
2022-08-03T16:14:53.793Z,8.20
2022-08-03T16:17:22.462Z,7.38
2022-08-03T16:19:49.854Z,7.07
2022-08-03T16:22:19.599Z,7.40
2022-08-03T16:24:50.369Z,7.90
2022-08-03T16:28:00.489Z,8.07
2022-08-03T16:30:09.650Z,7.28
2022-08-03T16:32:38.342Z,7.07
2022-08-03T16:35:05.832Z,7.28
2022-08-03T16:37:39.981Z,8.27
2022-08-03T16:40:17.471Z,8.63
2022-08-03T16:42:46.789Z,7.75
2022-08-03T16:45:13.883Z,7.82
2022-08-03T16:47:41.287Z,7.28
2022-08-03T16:50:14.231Z,7.40
2022-08-03T16:52:48.536Z,7.28
2022-08-03T16:55:18.506Z,7.65
2022-08-03T16:58:05.324Z,7.55
2022-08-03T17:00:41.650Z,8.20
2022-08-03T17:03:18.915Z,7.60
2022-08-03T17:05:50.200Z,7.30
2022-08-03T17:08:26.635Z,6.90
2022-08-03T17:10:54.704Z,7.10
2022-08-03T17:13:22.730Z,7.05
2022-08-03T17:15:57.835Z,6.97
2022-08-03T17:18:34.119Z,7.30
2022-08-03T17:21:06.617Z,7.63
2022-08-03T17:24:20.289Z,7.07
2022-08-03T17:26:51.199Z,9.02
2022-08-03T17:29:25.401Z,9.40
2022-08-03T17:31:56.843Z,11.80
2022-08-03T17:34:26.861Z,11.88
2022-08-03T17:37:27.343Z,10.88
2022-08-03T17:40:01.161Z,9.48
2022-08-03T17:42:33.241Z,8.55
2022-08-03T17:45:06.494Z,9.27
2022-08-03T17:47:42.578Z,10.93
2022-08-03T17:50:24.029Z,13.77
2022-08-03T17:53:07.496Z,12.95
2022-08-03T17:55:56.043Z,12.65
2022-08-03T17:58:55.290Z,12.10
2022-08-03T18:02:05.699Z,10.73
2022-08-03T18:04:40.624Z,10.20
2022-08-03T18:07:12.638Z,10.77
2022-08-03T18:10:06.398Z,10.07
2022-08-03T18:12:44.145Z,9.55
2022-08-03T18:15:20.961Z,8.45
2022-08-03T18:18:01.878Z,8.73
2022-08-03T18:20:40.413Z,7.70
2022-08-03T18:23:25.075Z,7.63
2022-08-03T18:26:07.430Z,8.15
2022-08-03T18:28:38.990Z,8.65
2022-08-03T18:31:11.450Z,9.95
2022-08-03T18:34:18.526Z,9.82
2022-08-03T18:36:30.367Z,10.10
2022-08-03T18:38:59.771Z,10.90
2022-08-03T18:41:32.639Z,10.60
2022-08-03T18:44:07.156Z,10.88
2022-08-03T18:47:16.742Z,9.85
2022-08-03T18:49:59.874Z,10.50
2022-08-03T18:52:53.351Z,10.60
2022-08-03T18:55:35.688Z,10.90
2022-08-03T18:58:18.393Z,10.43
2022-08-03T19:01:03.535Z,10.75
2022-08-03T19:03:42.779Z,11.60
2022-08-03T19:06:21.389Z,12.25
2022-08-03T19:09:02.434Z,10.85
2022-08-03T19:12:14.215Z,10.80
2022-08-03T19:14:53.451Z,11.15
2022-08-03T19:17:22.149Z,11.60
2022-08-03T19:20:01.422Z,10.55
2022-08-03T19:22:32.510Z,10.55
2022-08-03T19:25:02.378Z,10.70
2022-08-03T19:27:31.596Z,10.23
2022-08-03T19:30:11.894Z,10.82
2022-08-03T19:32:51.622Z,11.00
2022-08-03T19:35:19.330Z,10.57
2022-08-03T19:38:10.471Z,11.18
2022-08-03T19:40:44.113Z,10.90
2022-08-03T19:43:26.405Z,10.63
2022-08-03T19:46:08.274Z,11.50
2022-08-03T19:48:42.081Z,11.45
2022-08-03T19:51:13.117Z,11.27
2022-08-03T19:53:56.119Z,11.73
2022-08-03T19:56:25.237Z,11.20
2022-08-03T19:58:57.764Z,11.77
2022-08-03T20:01:25.891Z,11.23
2022-08-03T20:03:55.546Z,11.55
2022-08-03T20:06:24.276Z,11.75
2022-08-03T20:08:54.270Z,11.65
2022-08-03T20:11:28.829Z,12.40
2022-08-03T20:14:00.121Z,12.88
2022-08-03T20:16:27.283Z,12.45
2022-08-03T20:18:54.093Z,12.63
2022-08-03T20:21:25.011Z,12.05
2022-08-03T20:24:02.847Z,12.77
2022-08-03T20:26:51.747Z,12.93
2022-08-03T20:30:05.139Z,12.88
2022-08-03T20:32:19.843Z,12.48
2022-08-03T20:34:53.346Z,12.60
2022-08-03T20:37:21.496Z,12.98
2022-08-03T20:39:49.654Z,13.32
2022-08-03T20:42:21.444Z,13.30
2022-08-03T20:45:04.750Z,13.18
2022-08-03T20:47:50.231Z,12.57
2022-08-03T20:50:21.939Z,13.80
2022-08-03T20:52:52.505Z,13.23
2022-08-03T20:55:20.321Z,13.77
2022-08-03T20:58:09.539Z,13.15
2022-08-03T21:00:36.594Z,13.05
2022-08-03T21:03:03.901Z,13.30
2022-08-03T21:05:48.327Z,13.80
2022-08-03T21:08:21.300Z,14.10
2022-08-03T21:10:50.419Z,14.23
2022-08-03T21:13:39.487Z,14.57
2022-08-03T21:16:15.032Z,14.77
2022-08-03T21:18:49.262Z,14.23
2022-08-03T21:21:18.849Z,15.95
2022-08-03T21:23:55.334Z,15.75
2022-08-03T21:26:25.523Z,15.70
2022-08-03T21:28:54.985Z,16.02
2022-08-03T21:31:25.066Z,16.50
2022-08-03T21:33:58.177Z,16.98
2022-08-03T21:36:28.036Z,16.20
2022-08-03T21:38:57.388Z,16.52
2022-08-03T21:41:30.335Z,17.70
2022-08-03T21:43:59.568Z,17.05
2022-08-03T21:46:29.530Z,18.20
2022-08-03T21:50:06.776Z,17.65
2022-08-03T21:51:52.371Z,17.13
2022-08-03T21:54:34.641Z,17.58
2022-08-03T21:57:05.484Z,16.95
2022-08-03T21:59:40.176Z,17.55
2022-08-03T22:02:22.818Z,17.20
2022-08-03T22:05:04.871Z,16.73
2022-08-03T22:07:33.741Z,15.95
2022-08-03T22:10:02.858Z,15.55
2022-08-03T22:12:33.988Z,15.13
2022-08-03T22:15:02.527Z,15.15
2022-08-03T22:17:53.978Z,16.00
2022-08-03T22:20:21.377Z,15.88
2022-08-03T22:22:55.810Z,15.52
2022-08-03T22:25:29.575Z,15.70
2022-08-03T22:28:18.638Z,15.25
2022-08-03T22:30:50.157Z,15.50
2022-08-03T22:33:36.929Z,15.18
2022-08-03T22:36:05.756Z,15.25
2022-08-03T22:38:35.577Z,15.50
2022-08-03T22:41:06.088Z,14.65
2022-08-03T22:43:36.290Z,14.73
2022-08-03T22:46:09.981Z,14.63
2022-08-03T22:48:41.134Z,14.50
2022-08-03T22:51:09.423Z,15.15
2022-08-03T22:53:49.803Z,14.27
2022-08-03T22:56:19.498Z,14.80
2022-08-03T22:58:51.887Z,15.00
2022-08-03T23:01:25.325Z,14.45
2022-08-03T23:04:03.342Z,14.10
2022-08-03T23:06:37.860Z,14.93
2022-08-03T23:09:10.035Z,14.82
2022-08-03T23:11:53.638Z,14.00
2022-08-03T23:14:22.801Z,14.27
2022-08-03T23:16:56.111Z,13.82
2022-08-03T23:19:26.528Z,12.68
2022-08-03T23:22:03.395Z,12.77
2022-08-03T23:24:36.775Z,12.40
2022-08-03T23:27:06.460Z,12.10
2022-08-03T23:29:36.005Z,11.68
2022-08-03T23:32:04.341Z,11.38
2022-08-03T23:34:50.875Z,11.45
2022-08-03T23:37:20.445Z,10.88
2022-08-03T23:39:49.267Z,11.00
2022-08-03T23:42:19.191Z,10.60
2022-08-03T23:44:46.641Z,10.27
2022-08-03T23:47:14.065Z,10.50
2022-08-03T23:49:42.293Z,10.90
2022-08-03T23:52:47.832Z,10.40
2022-08-03T23:55:37.280Z,9.90
2022-08-03T23:58:12.947Z,10.10
